Aérodrome :
LOGIN :

S'inscrire | Disclaimer

   EN    FR    IT 

 










Légende :    VFR   VFR Marginal   IFR   IFR Intensif   IFR Très Intensif
Visi : 
Plafond : 
>= 8 km
>= 3000ft
5 à 8 km
1000 à 3000 ft
1500m à 5 km
500 à 1000 ft
800 à 1500m
200 à 500 ft
< 800m
< 200 ft
Symboles :   Orages  Brouillard  Fortes neiges  Fortes précipitations  Vent > 20 kt
SIGMETs :   Divers  Orages  Givrage  Turbulence  Onde Orograph.  Cendres Volcan.






- Altitude de l'aérodrome : 2220 ft


LOXZ - Zeltweg AB

DERNIER METAR :
  • 060620Z VRB02KT 20KM FEW003ST SCT060SC BKN140AC 14/12 Q1022 NOSIG

METARs EXPIRÉS :
  • 060550Z 00000KT 20KM FEW003ST SCT050SC BKN140AC 13/12 Q1022 NOSIG
  • 060520Z 00000KT 20KM FEW007ST SCT140AC 12/12 Q1021 NOSIG
  • 060450Z 25003KT 25KM FEW007ST 12/12 Q1021
  • 060350Z 07002KT 25KM FEW007SC BKN130AC 12/12 Q1021

TAF TAF LOXZ
Valide du 06 à 06h jusqu'au 06 à 15h UTC


060515Z 0606/0615 VRB03KT 9999 FEW007 SCT140
PROB30
TEMPO 0606/0607 FEW003 BKN007
TEMPO 0613/0615 12008KT FEW050CB SCT070



MET'MAP, la Météo Aéronautique d'un coup d'oeil ! - Copyright ORBIFLY Décembre 2007 - Disclaimer

ORBIFLY MET'MAP TEAM :

Programmation & Développement : Alexandra Zaïnal
Sur une idée originale de : Baudouin d'Aumeries
Assistance à la programmation : Marc-Olivier Méhu
Soutien technique & logistique : Manuel Goepfert

Contact : metmap@orbifly.com




SOURCES & CREDITS :

   NOAA